Time;durP1;ratioP1;P1;durP2;ratioP2;P2;SDS_P1;SDS_P2;PMS_P1;PMS_P2;Temp;Humidity;BMP_temperature;BMP_pressure;BME280_temperature;BME280_humidity;BME280_pressure;Samples;Min_cycle;Max_cycle;Signal;HPM_P1;HPM_P2
2022/11/24 00:01:30;;;;;;;0.00;0.00;;;;;;;8.11;78.34;98419.16;7360796;19;20837;-60
2022/11/24 00:04:01;;;;;;;0.00;0.00;;;;;;;8.12;78.35;98413.06;7362195;19;20010;-61
2022/11/24 00:06:28;;;;;;;0.10;0.10;;;;;;;8.07;78.11;98419.34;7362124;19;20010;-61
2022/11/24 00:08:54;;;;;;;0.00;0.00;;;;;;;8.13;78.05;98417.34;7360151;19;20018;-60
2022/11/24 00:11:25;;;;;;;0.03;0.03;;;;;;;8.03;78.48;98419.56;7363488;19;20021;-61
2022/11/24 00:13:51;;;;;;;0.00;0.00;;;;;;;8.11;78.47;98426.97;7361087;19;20011;-61
2022/11/24 00:16:22;;;;;;;0.00;0.00;;;;;;;8.11;78.06;98442.56;7362587;19;20030;-61
2022/11/24 00:18:50;;;;;;;0.00;0.00;;;;;;;8.10;78.48;98440.88;7359889;19;20018;-61
2022/11/24 00:21:17;;;;;;;0.00;0.00;;;;;;;8.09;78.48;98444.41;7358355;19;20362;-60
2022/11/24 00:23:43;;;;;;;0.10;0.10;;;;;;;8.09;78.70;98460.00;7358231;19;20002;-61
2022/11/24 00:26:11;;;;;;;0.10;0.10;;;;;;;8.11;78.42;98463.34;7360846;19;20010;-60
2022/11/24 00:28:38;;;;;;;0.10;0.10;;;;;;;8.09;78.19;98460.00;7360757;19;20061;-61
2022/11/24 00:31:12;;;;;;;0.10;0.10;;;;;;;8.02;78.54;98449.91;7358870;19;20022;-60
2022/11/24 00:33:38;;;;;;;0.00;0.00;;;;;;;8.01;78.23;98453.44;7361969;19;20031;-61
2022/11/24 00:36:03;;;;;;;0.03;0.03;;;;;;;8.10;78.39;98478.09;7363006;19;21234;-61
2022/11/24 00:38:29;;;;;;;0.10;0.10;;;;;;;8.11;78.74;98476.34;7359003;19;20011;-62
2022/11/24 00:40:54;;;;;;;0.05;0.05;;;;;;;8.10;78.30;98474.66;7363251;19;20021;-61
2022/11/24 00:43:20;;;;;;;0.00;0.00;;;;;;;8.12;78.68;98475.47;7360014;19;20018;-60
2022/11/24 00:45:45;;;;;;;0.00;0.00;;;;;;;8.12;78.27;98475.47;7362219;19;20006;-61
2022/11/24 00:48:11;;;;;;;0.00;0.00;;;;;;;8.12;78.18;98481.50;7361089;19;20014;-61
2022/11/24 00:50:36;;;;;;;0.00;0.00;;;;;;;8.12;78.53;98485.84;7357098;19;20010;-61
2022/11/24 00:53:02;;;;;;;0.00;0.00;;;;;;;8.11;78.51;98486.75;7361464;19;20668;-61
2022/11/24 00:55:27;;;;;;;0.08;0.08;;;;;;;8.10;78.18;98487.66;7360657;19;20014;-61
2022/11/24 00:57:52;;;;;;;0.00;0.00;;;;;;;8.11;78.15;98499.75;7362001;19;20011;-61
2022/11/24 01:00:18;;;;;;;0.10;0.10;;;;;;;8.01;78.23;98489.81;7360985;19;20018;-60
2022/11/24 01:02:44;;;;;;;0.00;0.00;;;;;;;8.09;78.55;98506.78;7361195;19;20342;-60
2022/11/24 01:05:09;;;;;;;0.00;0.00;;;;;;;8.09;78.52;98512.81;7359188;19;20016;-61
2022/11/24 01:07:35;;;;;;;0.00;0.00;;;;;;;8.13;78.60;98523.94;7358953;19;20026;-60
2022/11/24 01:10:00;;;;;;;0.00;0.00;;;;;;;8.11;78.18;98520.53;7361903;19;20635;-61
2022/11/24 01:12:26;;;;;;;0.00;0.00;;;;;;;8.13;78.58;98535.16;7359810;19;20015;-61
2022/11/24 01:14:51;;;;;;;0.00;0.00;;;;;;;8.12;78.41;98522.25;7360763;19;20493;-61
2022/11/24 01:17:17;;;;;;;0.05;0.05;;;;;;;8.13;78.23;98534.31;7361759;19;20026;-61
2022/11/24 01:19:42;;;;;;;0.10;0.10;;;;;;;8.14;78.29;98543.81;7361235;19;20006;-62
2022/11/24 01:22:08;;;;;;;0.10;0.10;;;;;;;8.14;78.47;98557.66;7361241;19;21513;-61
2022/11/24 01:24:33;;;;;;;0.00;0.00;;;;;;;8.17;78.45;98572.28;7359484;19;20052;-61
2022/11/24 01:26:59;;;;;;;0.00;0.00;;;;;;;8.18;78.42;98563.56;7360486;19;20015;-61
2022/11/24 01:29:24;;;;;;;0.10;0.10;;;;;;;8.20;78.08;98557.34;7357084;19;20492;-61
2022/11/24 01:31:50;;;;;;;0.00;0.00;;;;;;;8.22;78.00;98567.69;7361725;19;20011;-60
2022/11/24 01:34:16;;;;;;;0.00;0.00;;;;;;;8.24;78.26;98573.66;7359397;19;20963;-61
2022/11/24 01:36:41;;;;;;;0.00;0.00;;;;;;;8.18;78.06;98555.75;7360431;19;20011;-61
2022/11/24 01:39:07;;;;;;;0.00;0.00;;;;;;;8.23;78.01;98561.56;7360817;19;20007;-61
2022/11/24 01:41:34;;;;;;;0.10;0.10;;;;;;;8.23;77.98;98556.38;7368793;19;20021;-61
2022/11/24 01:43:59;;;;;;;0.10;0.10;;;;;;;8.24;78.11;98591.84;7366618;19;20011;-60
2022/11/24 01:46:31;;;;;;;0.00;0.00;;;;;;;8.23;77.67;98582.38;7367547;19;20045;-61
2022/11/24 01:49:16;;;;;;;0.00;0.00;;;;;;;8.21;77.87;98563.38;7364617;19;21045;-61
2022/11/24 01:51:47;;;;;;;0.00;0.00;;;;;;;8.23;77.92;98584.97;7366063;19;20381;-61
2022/11/24 01:54:21;;;;;;;0.00;0.00;;;;;;;8.22;77.91;98581.53;7365039;19;20017;-61
2022/11/24 01:56:50;;;;;;;0.00;0.00;;;;;;;8.19;77.78;98573.88;7366437;19;20412;-61
2022/11/24 01:59:19;;;;;;;0.00;0.00;;;;;;;8.19;77.77;98575.63;7366440;19;20058;-61
2022/11/24 02:01:46;;;;;;;0.00;0.00;;;;;;;8.18;77.54;98584.34;7367461;19;20010;-61
2022/11/24 02:04:16;;;;;;;0.00;0.00;;;;;;;8.19;77.40;98591.22;7364709;19;20039;-61
2022/11/24 02:06:44;;;;;;;0.00;0.00;;;;;;;8.18;77.47;98592.16;7366349;19;20395;-61
2022/11/24 02:09:20;;;;;;;0.00;0.00;;;;;;;8.19;77.56;98579.06;7366660;19;20052;-60
2022/11/24 02:11:46;;;;;;;0.00;0.00;;;;;;;8.16;77.56;98581.81;7364628;19;20027;-61
2022/11/24 02:14:14;;;;;;;0.00;0.00;;;;;;;8.16;77.52;98588.75;7365893;19;20788;-60
2022/11/24 02:16:43;;;;;;;0.00;0.00;;;;;;;8.17;77.32;98598.25;7363751;19;20031;-61
2022/11/24 02:19:34;;;;;;;0.10;0.10;;;;;;;8.18;77.46;98594.75;7363137;19;20592;-61
2022/11/24 02:22:01;;;;;;;0.00;0.00;;;;;;;8.17;77.29;98580.06;7367026;19;20736;-60
2022/11/24 02:24:42;;;;;;;0.00;0.00;;;;;;;8.17;77.32;98598.25;7367860;19;20007;-60
2022/11/24 02:27:08;;;;;;;0.10;0.10;;;;;;;8.16;76.95;98602.63;7367898;19;20014;-61
2022/11/24 02:29:34;;;;;;;0.00;0.00;;;;;;;8.16;77.11;98606.94;7367963;19;20370;-60
2022/11/24 02:32:03;;;;;;;0.00;0.00;;;;;;;8.17;77.05;98611.25;7368942;19;20015;-61
2022/11/24 02:34:28;;;;;;;0.00;0.00;;;;;;;8.14;77.31;98608.78;7365385;19;20013;-61
2022/11/24 02:36:54;;;;;;;0.00;0.00;;;;;;;7.85;77.38;98566.78;7369164;19;20014;-61
2022/11/24 02:39:19;;;;;;;0.00;0.00;;;;;;;8.13;76.77;98607.13;7366440;19;20426;-60
2022/11/24 02:42:00;;;;;;;0.05;0.05;;;;;;;8.13;77.19;98613.16;7367458;19;20006;-61
2022/11/24 02:44:31;;;;;;;0.00;0.00;;;;;;;8.15;77.06;98624.31;7367127;19;20094;-60
2022/11/24 02:47:05;;;;;;;0.10;0.10;;;;;;;8.15;77.38;98641.66;7368818;19;20789;-61
2022/11/24 02:49:31;;;;;;;0.00;0.00;;;;;;;8.12;77.37;98621.03;7367999;19;20011;-61
2022/11/24 02:51:56;;;;;;;0.00;0.00;;;;;;;8.14;77.30;98629.59;7363730;19;20034;-61
2022/11/24 02:54:22;;;;;;;0.00;0.00;;;;;;;8.12;77.07;98636.63;7367657;19;20010;-60
2022/11/24 02:56:47;;;;;;;0.00;0.00;;;;;;;8.13;76.78;98657.34;7365773;19;20019;-61
2022/11/24 02:59:12;;;;;;;0.00;0.00;;;;;;;8.02;76.79;98631.84;7359511;19;20473;-61
2022/11/24 03:01:38;;;;;;;0.00;0.00;;;;;;;8.13;76.74;98633.09;7365787;19;20018;-60
2022/11/24 03:04:03;;;;;;;0.00;0.00;;;;;;;8.13;77.17;98628.75;7364481;19;20366;-60
2022/11/24 03:06:29;;;;;;;0.03;0.03;;;;;;;8.14;77.14;98645.19;7362885;19;20017;-60
2022/11/24 03:08:54;;;;;;;0.10;0.10;;;;;;;8.14;77.13;98627.00;7365596;19;20437;-60
2022/11/24 03:11:19;;;;;;;0.00;0.00;;;;;;;8.13;77.19;98633.94;7363633;19;20002;-60
2022/11/24 03:13:45;;;;;;;0.00;0.00;;;;;;;8.12;76.70;98634.88;7365176;19;20018;-61
2022/11/24 03:16:10;;;;;;;0.10;0.10;;;;;;;8.13;76.80;98636.56;7365719;19;20880;-60
2022/11/24 03:18:35;;;;;;;0.03;0.03;;;;;;;8.13;76.81;98644.34;7365515;19;20070;-60
2022/11/24 03:21:01;;;;;;;0.00;0.00;;;;;;;8.12;76.92;98634.88;7367163;19;20011;-60
2022/11/24 03:23:26;;;;;;;0.00;0.00;;;;;;;8.12;77.35;98637.47;7364864;19;20018;-59
2022/11/24 03:25:52;;;;;;;0.00;0.00;;;;;;;8.12;77.24;98628.84;7366955;19;20006;-59
2022/11/24 03:28:17;;;;;;;0.00;0.00;;;;;;;8.15;77.13;98626.06;7364584;19;20014;-60
2022/11/24 03:30:42;;;;;;;0.03;0.03;;;;;;;8.13;76.93;98628.75;7366029;19;20014;-61
2022/11/24 03:33:08;;;;;;;0.00;0.00;;;;;;;8.14;77.40;98624.41;7363622;19;20481;-60
2022/11/24 03:35:33;;;;;;;0.00;0.00;;;;;;;8.10;77.19;98617.63;7365707;19;20006;-61
2022/11/24 03:37:59;;;;;;;0.00;0.00;;;;;;;8.16;77.17;98622.56;7363758;19;20019;-60
2022/11/24 03:40:24;;;;;;;0.00;0.00;;;;;;;8.18;77.10;98620.75;7367645;19;20019;-60
2022/11/24 03:42:49;;;;;;;0.00;0.00;;;;;;;8.19;77.28;98604.22;7365128;19;20482;-60
2022/11/24 03:45:15;;;;;;;0.10;0.10;;;;;;;8.22;77.65;98609.28;7364509;19;20103;-60
2022/11/24 03:47:40;;;;;;;0.00;0.00;;;;;;;8.25;77.03;98603.94;7366903;19;20010;-61
2022/11/24 03:50:06;;;;;;;0.00;0.00;;;;;;;8.28;77.12;98607.25;7364322;19;20434;-60
2022/11/24 03:52:31;;;;;;;0.00;0.00;;;;;;;8.31;77.12;98606.25;7365482;19;20038;-60
2022/11/24 03:54:57;;;;;;;0.00;0.00;;;;;;;8.36;77.40;98614.69;7363181;19;20762;-60
2022/11/24 03:57:22;;;;;;;0.00;0.00;;;;;;;8.38;77.01;98612.88;7360500;19;20018;-61
2022/11/24 03:59:47;;;;;;;0.00;0.00;;;;;;;8.41;77.31;98617.94;7364137;19;20018;-60
2022/11/24 04:02:13;;;;;;;0.10;0.10;;;;;;;8.43;77.16;98623.91;7362428;19;20037;-60
2022/11/24 04:04:38;;;;;;;0.00;0.00;;;;;;;8.45;76.96;98635.06;7355676;19;20090;-59
2022/11/24 04:07:04;;;;;;;0.00;0.00;;;;;;;8.49;77.20;98647.03;7366391;19;20018;-60
2022/11/24 04:09:29;;;;;;;0.10;0.10;;;;;;;8.50;77.17;98638.31;7363665;19;20010;-60
2022/11/24 04:14:56;;;;;;;0.00;0.00;;;;;;;8.56;76.94;98647.56;7260234;19;2004339;-59
2022/11/24 04:17:21;;;;;;;0.10;0.10;;;;;;;8.58;77.27;98641.41;7364165;19;20034;-60
2022/11/24 04:19:47;;;;;;;0.00;0.00;;;;;;;8.60;76.94;98637.88;7358626;19;20034;-60
2022/11/24 04:22:12;;;;;;;0.00;0.00;;;;;;;8.62;77.21;98642.09;7359946;19;20003;-60
2022/11/24 04:24:37;;;;;;;0.00;0.00;;;;;;;8.64;77.29;98634.22;7355210;19;20094;-60
2022/11/24 04:27:03;;;;;;;0.00;0.00;;;;;;;8.65;76.84;98644.53;7365227;19;20014;-59
2022/11/24 04:29:28;;;;;;;0.00;0.00;;;;;;;8.60;77.18;98627.47;7363868;19;20014;-59
2022/11/24 04:31:53;;;;;;;0.10;0.10;;;;;;;8.65;76.81;98635.91;7367269;19;20074;-60
2022/11/24 04:34:19;;;;;;;0.00;0.00;;;;;;;8.64;77.09;98642.03;7363321;19;20022;-60
2022/11/24 04:36:44;;;;;;;0.00;0.00;;;;;;;8.64;76.92;98639.41;7364814;19;20014;-60
2022/11/24 04:39:10;;;;;;;0.00;0.00;;;;;;;8.62;76.87;98633.44;7363613;19;20026;-60
2022/11/24 04:41:35;;;;;;;0.00;0.00;;;;;;;8.63;76.82;98632.53;7366535;19;20047;-60
2022/11/24 04:44:01;;;;;;;0.00;0.00;;;;;;;8.60;77.12;98620.50;7362582;19;20022;-60
2022/11/24 04:46:26;;;;;;;0.00;0.00;;;;;;;8.62;77.28;98610.00;7364617;19;20018;-60
2022/11/24 04:48:51;;;;;;;0.00;0.00;;;;;;;8.58;77.38;98598.94;7365074;19;20018;-61
2022/11/24 04:51:17;;;;;;;0.05;0.05;;;;;;;8.60;77.23;98604.06;7364670;19;20098;-60
2022/11/24 04:53:42;;;;;;;0.10;0.10;;;;;;;8.61;77.32;98603.97;7362348;19;20006;-60
2022/11/24 04:56:08;;;;;;;0.00;0.00;;;;;;;8.49;77.52;98563.78;7361395;19;20030;-59
2022/11/24 04:58:34;;;;;;;0.00;0.00;;;;;;;8.67;77.77;98571.59;7364850;19;20047;-60
2022/11/24 05:00:59;;;;;;;0.00;0.00;;;;;;;8.56;77.38;98548.72;7364080;19;20009;-60
2022/11/24 05:03:24;;;;;;;0.10;0.10;;;;;;;8.73;77.47;98577.38;7363748;19;20106;-60
2022/11/24 05:05:50;;;;;;;0.05;0.05;;;;;;;8.76;77.70;98572.00;7361891;19;20402;-60
2022/11/24 05:08:15;;;;;;;0.10;0.10;;;;;;;8.77;77.74;98552.91;7364612;19;20022;-60
2022/11/24 05:10:41;;;;;;;0.00;0.00;;;;;;;8.82;77.79;98543.09;7364488;19;20010;-59
2022/11/24 05:13:11;;;;;;;0.10;0.10;;;;;;;8.90;77.65;98553.09;7361347;19;20073;-59
2022/11/24 05:15:38;;;;;;;0.10;0.10;;;;;;;8.86;77.88;98545.53;7361169;19;20073;-60
2022/11/24 05:18:10;;;;;;;0.10;0.10;;;;;;;9.00;77.92;98543.06;7363684;19;20043;-60
2022/11/24 05:20:36;;;;;;;0.00;0.00;;;;;;;9.04;78.00;98540.25;7365176;19;20584;-60
2022/11/24 05:23:06;;;;;;;0.10;0.10;;;;;;;9.12;77.61;98546.81;7363286;19;20034;-60
2022/11/24 05:25:33;;;;;;;0.00;0.00;;;;;;;9.07;77.19;98516.66;7363745;19;20018;-60
2022/11/24 05:28:00;;;;;;;0.00;0.00;;;;;;;9.24;77.15;98540.97;7363006;19;20519;-58
2022/11/24 05:30:26;;;;;;;0.00;0.00;;;;;;;9.29;77.43;98544.19;7362481;19;20473;-59
2022/11/24 05:32:51;;;;;;;0.00;0.00;;;;;;;9.33;77.10;98540.50;7362074;19;20015;-59
2022/11/24 05:35:17;;;;;;;0.00;0.00;;;;;;;9.35;77.26;98543.88;7363667;19;20376;-60
2022/11/24 05:37:43;;;;;;;0.00;0.00;;;;;;;9.38;77.28;98542.84;7360686;19;20046;-60
2022/11/24 05:40:09;;;;;;;0.00;0.00;;;;;;;9.42;77.29;98545.22;7362945;19;20021;-60
2022/11/24 05:42:40;;;;;;;0.03;0.03;;;;;;;9.45;77.29;98521.63;7362217;19;20102;-60
2022/11/24 05:45:15;;;;;;;0.10;0.10;;;;;;;9.54;77.07;98523.75;7362919;19;20018;-59
2022/11/24 05:47:41;;;;;;;0.05;0.05;;;;;;;9.57;77.34;98527.94;7360127;19;20192;-60
2022/11/24 05:50:10;;;;;;;0.00;0.00;;;;;;;9.64;76.87;98525.88;7362879;19;20031;-60
2022/11/24 05:52:35;;;;;;;0.10;0.10;;;;;;;9.66;76.81;98506.59;7360636;19;20010;-60
2022/11/24 05:55:01;;;;;;;0.00;0.00;;;;;;;9.73;77.19;98507.09;7362462;19;20090;-59
2022/11/24 05:57:26;;;;;;;0.00;0.00;;;;;;;9.75;76.82;98489.63;7361008;19;20731;-60
2022/11/24 05:59:51;;;;;;;0.10;0.10;;;;;;;9.74;76.71;98493.16;7362236;19;20425;-60
2022/11/24 06:02:17;;;;;;;0.00;0.00;;;;;;;9.80;76.98;98498.03;7359632;19;20033;-60
2022/11/24 06:04:43;;;;;;;0.10;0.10;;;;;;;9.84;76.71;98499.56;7361719;19;20041;-58
2022/11/24 06:07:10;;;;;;;0.00;0.00;;;;;;;9.86;76.65;98503.75;7361387;19;20613;-59
2022/11/24 06:09:37;;;;;;;0.00;0.00;;;;;;;9.89;76.68;98502.75;7361967;19;20018;-60
2022/11/24 06:12:03;;;;;;;0.00;0.00;;;;;;;9.87;76.15;98494.16;7361111;19;20023;-60
2022/11/24 06:14:28;;;;;;;0.00;0.00;;;;;;;9.90;76.33;98494.00;7361305;19;20070;-58
2022/11/24 06:16:54;;;;;;;0.00;0.00;;;;;;;9.91;75.98;98482.66;7361657;19;20827;-59
2022/11/24 06:19:19;;;;;;;0.00;0.00;;;;;;;9.91;76.13;98474.00;7361358;19;20026;-60
2022/11/24 06:21:45;;;;;;;0.00;0.00;;;;;;;9.91;76.13;98476.59;7362072;19;20021;-59
2022/11/24 06:24:10;;;;;;;0.00;0.00;;;;;;;9.90;76.39;98467.94;7360500;19;20026;-59
2022/11/24 06:26:36;;;;;;;0.10;0.10;;;;;;;9.91;76.17;98461.78;7368764;19;20011;-59
2022/11/24 06:29:01;;;;;;;0.10;0.10;;;;;;;9.91;76.31;98448.75;7369798;19;20018;-59
2022/11/24 06:31:26;;;;;;;0.00;0.00;;;;;;;9.92;76.48;98454.81;7366261;19;20010;-59
2022/11/24 06:33:52;;;;;;;0.00;0.00;;;;;;;9.92;76.47;98444.38;7367815;19;20038;-60
2022/11/24 06:36:17;;;;;;;0.10;0.10;;;;;;;9.93;76.42;98446.06;7368942;19;20580;-59
2022/11/24 06:38:43;;;;;;;0.00;0.00;;;;;;;9.93;76.96;98439.06;7365772;19;20011;-60
2022/11/24 06:41:12;;;;;;;0.00;0.00;;;;;;;9.95;76.88;98442.44;7366638;19;20011;-59
2022/11/24 06:43:37;;;;;;;0.00;0.00;;;;;;;9.92;76.72;98434.78;7367432;19;20027;-60
2022/11/24 06:46:03;;;;;;;0.10;0.10;;;;;;;9.84;76.99;98418.75;7367766;19;20715;-60
2022/11/24 06:48:30;;;;;;;0.00;0.00;;;;;;;10.00;76.96;98434.38;7366780;19;20069;-60
2022/11/24 06:51:03;;;;;;;0.00;0.00;;;;;;;9.95;77.37;98424.19;7366242;19;20034;-60
2022/11/24 06:53:30;;;;;;;0.00;0.00;;;;;;;10.03;77.24;98421.97;7368192;19;20038;-59
2022/11/24 06:56:00;;;;;;;0.00;0.00;;;;;;;10.09;77.39;98420.81;7368497;19;20030;-60
2022/11/24 06:58:26;;;;;;;0.10;0.10;;;;;;;10.08;77.48;98411.28;7359034;19;20054;-59
2022/11/24 07:00:51;;;;;;;0.00;0.00;;;;;;;10.12;77.71;98379.72;7367385;19;20006;-59
2022/11/24 07:03:18;;;;;;;0.00;0.00;;;;;;;10.15;77.77;98386.56;7360973;19;20002;-59
2022/11/24 07:05:44;;;;;;;0.10;0.10;;;;;;;10.19;77.34;98374.16;7363608;19;20015;-59
2022/11/24 07:08:09;;;;;;;0.10;0.10;;;;;;;10.22;77.30;98371.38;7366562;19;20022;-60
2022/11/24 07:10:35;;;;;;;0.00;0.00;;;;;;;10.26;77.55;98370.31;7366300;19;20018;-60
2022/11/24 07:13:02;;;;;;;0.00;0.00;;;;;;;10.30;77.80;98366.59;7361452;19;20010;-59
2022/11/24 07:15:29;;;;;;;0.00;0.00;;;;;;;10.35;77.62;98359.34;7362038;19;20374;-60
2022/11/24 07:17:54;;;;;;;0.08;0.08;;;;;;;10.34;77.44;98349.81;7365852;19;20026;-60
2022/11/24 07:20:19;;;;;;;0.10;0.10;;;;;;;10.44;77.82;98358.81;7362896;19;20011;-59
2022/11/24 07:22:45;;;;;;;0.10;0.10;;;;;;;10.48;78.02;98344.63;7357907;19;20049;-59
2022/11/24 07:25:12;;;;;;;0.00;0.00;;;;;;;10.48;77.29;98343.78;7358507;19;20013;-60
2022/11/24 07:27:38;;;;;;;0.00;0.00;;;;;;;10.56;77.35;98337.19;7364279;19;20032;-59
2022/11/24 07:30:04;;;;;;;0.10;0.10;;;;;;;10.57;77.39;98323.19;7363322;19;20455;-60
2022/11/24 07:32:30;;;;;;;0.00;0.00;;;;;;;10.51;77.50;98300.09;7361837;19;20045;-59
2022/11/24 07:34:55;;;;;;;0.00;0.00;;;;;;;10.61;77.67;98309.03;7361509;19;20097;-58
2022/11/24 07:37:20;;;;;;;0.00;0.00;;;;;;;10.62;77.65;98305.47;7360174;19;20479;-60
2022/11/24 07:39:46;;;;;;;0.10;0.10;;;;;;;10.61;77.76;98298.59;7364244;19;20014;-59
2022/11/24 07:42:11;;;;;;;0.10;0.10;;;;;;;10.61;78.01;98301.19;7350684;19;20049;-60
2022/11/24 07:44:36;;;;;;;0.00;0.00;;;;;;;10.60;77.65;98270.81;7365196;19;20491;-60
2022/11/24 07:47:02;;;;;;;0.08;0.08;;;;;;;10.54;77.96;98265.97;7362545;19;20042;-59
2022/11/24 07:49:28;;;;;;;0.10;0.10;;;;;;;10.63;77.83;98275.00;7363301;19;20670;-60
2022/11/24 07:51:53;;;;;;;0.05;0.05;;;;;;;10.63;78.11;98261.94;7362766;19;20010;-60
2022/11/24 07:54:18;;;;;;;0.10;0.10;;;;;;;10.62;77.79;98252.44;7362552;19;20105;-60
2022/11/24 07:56:47;;;;;;;0.08;0.08;;;;;;;10.62;78.24;98257.66;7362756;19;20019;-61
2022/11/24 07:59:12;;;;;;;0.05;0.05;;;;;;;10.55;78.06;98235.50;7355292;19;20014;-61
2022/11/24 08:01:38;;;;;;;0.00;0.00;;;;;;;10.63;78.34;98241.06;7364259;19;20020;-60
2022/11/24 08:04:03;;;;;;;0.00;0.00;;;;;;;10.63;78.17;98239.28;7364266;19;20077;-61
2022/11/24 08:06:29;;;;;;;0.00;0.00;;;;;;;10.64;78.15;98230.56;7364666;19;20443;-61
2022/11/24 08:08:55;;;;;;;0.10;0.10;;;;;;;10.64;78.54;98220.13;7363405;19;20462;-61
2022/11/24 08:11:20;;;;;;;0.00;0.00;;;;;;;10.65;78.67;98206.13;7365121;19;20029;-61
2022/11/24 08:13:46;;;;;;;0.00;0.00;;;;;;;10.65;78.71;98195.69;7364962;19;20016;-61
2022/11/24 08:16:13;;;;;;;0.00;0.00;;;;;;;10.67;78.61;98181.69;7362492;19;20010;-61
2022/11/24 08:18:39;;;;;;;;;;;;;;;10.73;78.66;98178.69;7365645;19;20030;-60
2022/11/24 08:21:06;;;;;;;0.00;0.00;;;;;;;10.70;78.48;98176.28;7364807;19;21164;-61
2022/11/24 08:23:32;;;;;;;0.00;0.00;;;;;;;10.61;78.33;98152.44;7363226;19;20050;-60
2022/11/24 08:26:03;;;;;;;0.00;0.00;;;;;;;10.72;78.92;98174.41;7363883;19;20022;-60
2022/11/24 08:28:29;;;;;;;0.00;0.00;;;;;;;10.74;78.61;98177.75;7365668;19;20006;-60
2022/11/24 08:31:05;;;;;;;0.00;0.00;;;;;;;10.79;78.70;98170.47;7363700;19;22784;-60
2022/11/24 08:33:31;;;;;;;0.00;0.00;;;;;;;10.80;79.06;98159.09;7364722;19;20589;-60
2022/11/24 08:36:05;;;;;;;0.00;0.00;;;;;;;10.72;78.82;98145.69;7358737;19;20085;-60
2022/11/24 08:38:30;;;;;;;0.08;0.08;;;;;;;10.84;78.89;98152.72;7364088;19;20011;-61
2022/11/24 08:41:01;;;;;;;0.10;0.10;;;;;;;10.87;78.92;98131.66;7359651;19;21342;-61
2022/11/24 08:43:26;;;;;;;0.10;0.10;;;;;;;10.88;79.14;98133.31;7364723;19;20014;-61
2022/11/24 08:45:52;;;;;;;0.00;0.00;;;;;;;10.89;79.15;98119.34;7364648;19;21108;-60
2022/11/24 08:48:17;;;;;;;0.00;0.00;;;;;;;10.88;78.85;98112.44;7364477;19;20154;-60
2022/11/24 08:50:43;;;;;;;0.00;0.00;;;;;;;10.95;79.32;98116.34;7364781;19;20069;-60
2022/11/24 08:53:08;;;;;;;0.00;0.00;;;;;;;10.98;79.02;98118.72;7365871;19;20015;-60
2022/11/24 08:55:33;;;;;;;0.10;0.10;;;;;;;11.01;78.85;98123.78;7365771;19;20010;-61
2022/11/24 08:57:59;;;;;;;0.00;0.00;;;;;;;11.07;79.17;98125.97;7364165;19;20014;-62
2022/11/24 09:00:24;;;;;;;0.00;0.00;;;;;;;11.10;78.74;98123.16;7365106;19;20018;-62
2022/11/24 09:02:57;;;;;;;0.00;0.00;;;;;;;11.15;78.69;98081.91;7365125;19;20026;-62
2022/11/24 09:05:23;;;;;;;0.00;0.00;;;;;;;11.04;78.78;98081.75;7365931;19;20097;-62
2022/11/24 09:07:49;;;;;;;0.00;0.00;;;;;;;11.14;78.13;98035.81;7364716;19;20026;-63
2022/11/24 09:10:15;;;;;;;0.00;0.00;;;;;;;11.13;77.77;98112.50;7361610;19;20010;-61
2022/11/24 09:12:43;;;;;;;0.00;0.00;;;;;;;11.12;78.02;98128.28;7364331;19;20019;-61
2022/11/24 09:15:08;;;;;;;;;;;;;;;11.06;77.49;98069.47;7365182;19;20002;-61
2022/11/24 09:17:34;;;;;;;0.00;0.00;;;;;;;10.99;77.84;98057.72;7363096;19;20267;-61
2022/11/24 09:19:59;;;;;;;0.10;0.10;;;;;;;10.93;78.05;98034.66;7363942;19;20010;-61
2022/11/24 09:22:24;;;;;;;0.00;0.00;;;;;;;10.88;77.93;98042.78;7364297;19;20015;-61
2022/11/24 09:24:50;;;;;;;0.00;0.00;;;;;;;10.83;77.91;98047.47;7360679;19;20034;-61
2022/11/24 09:27:15;;;;;;;0.05;0.05;;;;;;;10.78;78.09;98067.81;7362704;19;20031;-61
2022/11/24 09:29:41;;;;;;;0.00;0.00;;;;;;;10.77;78.17;98058.31;7363760;19;20010;-61
2022/11/24 09:32:06;;;;;;;0.00;0.00;;;;;;;10.74;78.01;98078.56;7362330;19;20034;-61
2022/11/24 09:34:31;;;;;;;0.00;0.00;;;;;;;10.70;78.27;98056.22;7363961;19;20014;-61
2022/11/24 09:36:57;;;;;;;0.00;0.00;;;;;;;10.62;77.96;98073.22;7362316;19;20570;-61
2022/11/24 09:39:23;;;;;;;0.00;0.00;;;;;;;10.60;78.15;98076.88;7363727;19;20026;-62
2022/11/24 09:41:48;;;;;;;0.10;0.10;;;;;;;10.55;78.27;98074.56;7362560;19;20006;-60
2022/11/24 09:44:44;;;;;;;0.08;0.08;;;;;;;10.53;78.38;98060.75;7363963;19;20070;-61
2022/11/24 09:47:28;;;;;;;0.00;0.00;;;;;;;10.48;78.20;98046.34;7261435;19;2004624;-60
2022/11/24 09:50:18;;;;;;;0.00;0.00;;;;;;;10.45;78.46;98038.72;7364605;19;20021;-59
2022/11/24 09:53:08;;;;;;;0.10;0.10;;;;;;;10.42;78.48;98031.91;7363700;19;20019;-61
2022/11/24 09:55:46;;;;;;;0.00;0.00;;;;;;;10.39;78.98;98032.09;7259533;19;2004412;-60
2022/11/24 09:58:20;;;;;;;;;;;;;;;10.41;78.70;98045.91;7358915;19;20011;-61
2022/11/24 10:00:49;;;;;;;0.10;0.10;;;;;;;10.40;78.68;98044.25;7367265;19;19915;-62
2022/11/24 10:03:40;;;;;;;0.10;0.10;;;;;;;10.41;78.53;98056.34;7368919;19;20010;-61
2022/11/24 10:06:20;;;;;;;0.10;0.10;;;;;;;10.39;78.72;98043.41;7267200;19;2004688;-61
2022/11/24 10:09:12;;;;;;;0.00;0.00;;;;;;;10.41;78.90;98058.94;7369348;19;20022;-61
2022/11/24 10:12:02;;;;;;;0.00;0.00;;;;;;;10.44;79.32;98065.72;7267110;19;2005964;-61
2022/11/24 10:14:52;;;;;;;0.00;0.00;;;;;;;10.46;79.24;98064.72;7264652;19;2004428;-61
2022/11/24 10:17:32;;;;;;;0.00;0.00;;;;;;;10.50;79.46;98071.41;7367326;19;20018;-61
2022/11/24 10:20:11;;;;;;;0.10;0.10;;;;;;;10.52;79.18;98064.31;7368972;19;20838;-61
2022/11/24 10:22:55;;;;;;;0.00;0.00;;;;;;;10.55;79.34;98082.38;7369469;19;20014;-61
2022/11/24 10:25:44;;;;;;;0.10;0.10;;;;;;;10.59;78.90;98078.66;7369736;19;20014;-60
2022/11/24 10:28:13;;;;;;;0.10;0.10;;;;;;;10.61;79.13;98079.38;7368503;19;20030;-61
2022/11/24 10:30:39;;;;;;;0.00;0.00;;;;;;;10.59;79.22;98075.16;7368244;19;20047;-61
2022/11/24 10:33:11;;;;;;;0.00;0.00;;;;;;;10.64;79.20;98084.41;7368611;19;20790;-61
2022/11/24 10:35:44;;;;;;;0.05;0.05;;;;;;;10.72;78.72;98086.50;7368769;19;20014;-60
2022/11/24 10:38:31;;;;;;;0.00;0.00;;;;;;;10.73;79.13;98092.56;7367745;19;20017;-61
2022/11/24 10:41:41;;;;;;;0.00;0.00;;;;;;;10.83;79.10;98104.06;7368372;19;20014;-61
2022/11/24 10:44:12;;;;;;;0.10;0.10;;;;;;;10.85;78.62;98103.06;7262469;19;2004287;-60
2022/11/24 10:46:38;;;;;;;0.10;0.10;;;;;;;10.69;78.66;98091.91;7367274;19;20098;-60
2022/11/24 10:49:04;;;;;;;0.00;0.00;;;;;;;10.91;78.59;98112.25;7368025;19;20537;-61
2022/11/24 10:52:00;;;;;;;0.00;0.00;;;;;;;11.03;78.92;98108.81;7367278;19;20006;-61
2022/11/24 10:54:25;;;;;;;0.00;0.00;;;;;;;11.08;78.49;98132.84;7267098;19;2004562;-61
2022/11/24 10:56:52;;;;;;;0.10;0.10;;;;;;;11.15;78.41;98122.84;7366159;19;20367;-60
2022/11/24 10:59:23;;;;;;;0.05;0.05;;;;;;;11.25;78.37;98129.13;7368679;19;20038;-61
2022/11/24 11:01:51;;;;;;;0.00;0.00;;;;;;;11.34;78.68;98125.06;7368617;19;20006;-61
2022/11/24 11:04:36;;;;;;;0.00;0.00;;;;;;;11.56;79.18;98135.78;7365436;19;20015;-62
2022/11/24 11:07:09;;;;;;;0.00;0.00;;;;;;;11.77;79.08;98127.41;7264451;19;2004378;-61
2022/11/24 11:09:34;;;;;;;0.00;0.00;;;;;;;11.92;78.62;98142.06;7366476;19;20113;-61
2022/11/24 11:12:18;;;;;;;0.10;0.10;;;;;;;12.25;78.19;98132.81;7365183;19;20114;-62
2022/11/24 11:14:46;;;;;;;0.00;0.00;;;;;;;12.47;77.44;98138.19;7368028;19;20010;-61
2022/11/24 11:17:32;;;;;;;0.10;0.10;;;;;;;12.76;78.00;98137.88;7364914;19;20073;-61
2022/11/24 11:20:04;;;;;;;0.00;0.00;;;;;;;12.99;76.47;98139.66;7367536;19;20003;-61
2022/11/24 11:22:32;;;;;;;0.10;0.10;;;;;;;13.17;76.02;98153.16;7367256;19;20437;-62
2022/11/24 11:25:08;;;;;;;0.00;0.00;;;;;;;13.40;75.65;98139.22;7366246;19;20018;-61
2022/11/24 11:27:34;;;;;;;0.00;0.00;;;;;;;13.55;75.41;98147.72;7365649;19;20734;-61
2022/11/24 11:30:16;;;;;;;0.10;0.10;;;;;;;13.88;75.14;98159.22;7368029;19;20022;-61
2022/11/24 11:32:59;;;;;;;0.10;0.10;;;;;;;13.89;74.12;98118.91;7366715;19;20029;-61
2022/11/24 11:35:27;;;;;;;0.00;0.00;;;;;;;14.16;73.70;98169.25;7366694;19;20010;-61
2022/11/24 11:38:02;;;;;;;0.00;0.00;;;;;;;14.35;73.75;98178.34;7366487;19;20021;-62
2022/11/24 11:40:30;;;;;;;0.00;0.00;;;;;;;14.48;72.55;98189.56;7368563;19;20031;-61
2022/11/24 11:43:19;;;;;;;0.10;0.10;;;;;;;14.65;72.66;98188.22;7367157;19;20795;-61
2022/11/24 11:45:54;;;;;;;0.00;0.00;;;;;;;14.71;72.74;98185.97;7367298;19;20094;-62
2022/11/24 11:48:32;;;;;;;0.10;0.10;;;;;;;14.97;72.58;98196.16;7362150;19;20038;-61